Time;durP1;ratioP1;P1;durP2;ratioP2;P2;SDS_P1;SDS_P2;PMS_P1;PMS_P2;Temp;Humidity;BMP_temperature;BMP_pressure;BME280_temperature;BME280_humidity;BME280_pressure;Samples;Min_cycle;Max_cycle;Signal;HPM_P1;HPM_P2
2023/10/27 00:00:38;;;;;;;42.95;24.33;;;;;;;9.24;100.00;97560.47;5032674;28;20025;-85
2023/10/27 00:03:04;;;;;;;41.08;23.45;;;;;;;9.52;100.00;97612.97;5032317;28;20079;-85
2023/10/27 00:05:30;;;;;;;50.90;29.00;;;;;;;9.36;100.00;97585.53;5031446;28;20025;-85
2023/10/27 00:07:56;;;;;;;44.45;25.52;;;;;;;9.34;100.00;97605.59;5032449;28;20040;-85
2023/10/27 00:10:22;;;;;;;42.08;25.98;;;;;;;9.46;100.00;97627.25;5032616;28;20033;-85
2023/10/27 00:12:47;;;;;;;38.90;23.73;;;;;;;9.27;100.00;97580.19;5032172;28;20030;-85
2023/10/27 00:15:13;;;;;;;25.95;18.10;;;;;;;9.33;100.00;97595.31;5031172;28;20034;-85
2023/10/27 00:17:38;;;;;;;29.42;19.60;;;;;;;9.23;100.00;97590.81;5032321;28;20029;-85
2023/10/27 00:20:05;;;;;;;31.52;20.13;;;;;;;9.32;100.00;97604.06;5032298;28;20104;-85
2023/10/27 00:22:32;;;;;;;28.00;18.75;;;;;;;9.28;100.00;97607.84;5032523;28;20116;-84
2023/10/27 00:25:01;;;;;;;23.70;16.52;;;;;;;9.24;100.00;97605.47;5030857;28;20021;-85
2023/10/27 00:27:26;;;;;;;20.52;14.77;;;;;;;9.24;100.00;97592.47;5031084;28;20040;-84
2023/10/27 00:29:52;;;;;;;21.92;15.20;;;;;;;9.15;100.00;97566.34;5031948;28;20029;-85
2023/10/27 00:32:17;;;;;;;20.63;15.48;;;;;;;9.43;100.00;97601.47;5030278;28;20029;-84
2023/10/27 00:34:42;;;;;;;21.98;15.88;;;;;;;9.28;100.00;97576.66;5030997;28;20032;-85
2023/10/27 00:37:08;;;;;;;21.15;13.82;;;;;;;9.01;100.00;97531.00;5031867;28;20088;-85
2023/10/27 00:39:33;;;;;;;22.52;14.98;;;;;;;9.21;100.00;97555.50;5031073;28;20427;-84
2023/10/27 00:41:59;;;;;;;23.52;16.13;;;;;;;9.20;100.00;97559.88;5031894;28;20025;-85
2023/10/27 00:44:24;;;;;;;25.17;17.13;;;;;;;9.02;100.00;97522.28;5030741;28;20057;-85
2023/10/27 00:46:52;;;;;;;29.45;18.88;;;;;;;9.34;100.00;97568.41;5031745;28;20039;-85
2023/10/27 00:49:18;;;;;;;31.00;19.58;;;;;;;9.42;100.00;97587.66;5032001;28;20137;-84
2023/10/27 00:51:46;;;;;;;29.63;18.15;;;;;;;9.35;100.00;97563.06;5030772;28;20075;-85
2023/10/27 00:54:12;;;;;;;29.95;17.95;;;;;;;9.44;100.00;97580.59;5031679;28;20104;-85
2023/10/27 00:56:39;;;;;;;25.83;15.07;;;;;;;9.23;100.00;97545.84;5031967;28;20060;-85
2023/10/27 00:59:05;;;;;;;25.70;15.13;;;;;;;9.38;100.00;97575.03;5031651;28;20108;-85
2023/10/27 01:01:32;;;;;;;25.73;15.98;;;;;;;9.21;100.00;97558.91;5031889;28;20474;-85
2023/10/27 01:03:58;;;;;;;26.45;15.45;;;;;;;9.03;100.00;97530.91;5032069;28;20068;-84
2023/10/27 01:06:24;;;;;;;25.08;15.30;;;;;;;9.19;100.00;97557.41;5031859;28;20392;-84
2023/10/27 01:08:49;;;;;;;14.80;10.55;;;;;;;9.17;100.00;97548.88;5030368;28;20033;-84
2023/10/27 01:11:18;;;;;;;13.85;10.32;;;;;;;9.18;100.00;97551.34;5031759;28;20433;-85
2023/10/27 01:13:44;;;;;;;18.35;9.75;;;;;;;9.13;100.00;97543.06;5031582;28;20028;-84
2023/10/27 01:16:09;;;;;;;11.88;9.25;;;;;;;9.16;100.00;97545.47;5031688;28;20030;-85
2023/10/27 01:18:35;;;;;;;15.48;10.70;;;;;;;9.08;100.00;97528.78;5063888;28;20108;-84
2023/10/27 01:21:00;;;;;;;15.77;9.82;;;;;;;9.05;100.00;97511.66;5031426;28;20414;-85
2023/10/27 01:23:25;;;;;;;12.43;8.80;;;;;;;8.98;100.00;97511.31;5030382;28;20055;-85
2023/10/27 01:25:51;;;;;;;11.32;8.95;;;;;;;9.06;100.00;97539.31;5031497;28;20029;-85
2023/10/27 01:28:17;;;;;;;15.55;10.00;;;;;;;8.89;100.00;97500.75;5032058;28;20021;-85
2023/10/27 01:30:42;;;;;;;12.18;8.70;;;;;;;8.89;100.00;97496.41;5031873;28;20103;-84
2023/10/27 01:33:07;;;;;;;15.27;9.88;;;;;;;8.87;100.00;97495.69;5030062;28;20025;-85
2023/10/27 01:35:35;;;;;;;23.52;12.57;;;;;;;8.95;100.00;97508.94;5031923;28;20025;-85
2023/10/27 01:38:00;;;;;;;15.50;11.30;;;;;;;9.12;100.00;97520.66;5031180;28;20053;-84
2023/10/27 01:40:27;;;;;;;17.05;10.93;;;;;;;9.10;100.00;97512.16;5030161;28;20052;-84
2023/10/27 01:42:52;;;;;;;14.23;10.30;;;;;;;9.04;100.00;97516.97;5033833;28;20040;-84
2023/10/27 01:45:17;;;;;;;16.35;10.43;;;;;;;9.02;100.00;97526.63;5033837;28;20025;-84
2023/10/27 01:47:43;;;;;;;14.55;11.02;;;;;;;8.77;100.00;97492.13;5035456;28;20025;-84
2023/10/27 01:50:08;;;;;;;13.55;9.82;;;;;;;8.96;100.00;97530.53;5033820;28;20067;-84
2023/10/27 01:52:34;;;;;;;19.88;11.48;;;;;;;8.94;100.00;97520.25;5067131;28;20492;-84
2023/10/27 01:54:59;;;;;;;18.10;12.73;;;;;;;8.76;100.00;97485.25;5035172;28;20033;-85
2023/10/27 01:57:24;;;;;;;18.33;11.95;;;;;;;8.62;100.00;97470.72;5033715;28;20033;-85
2023/10/27 01:59:50;;;;;;;18.45;13.30;;;;;;;8.77;100.00;97501.69;5034944;28;20049;-84
2023/10/27 02:02:16;;;;;;;16.38;12.25;;;;;;;8.61;100.00;97473.44;5034895;28;20069;-85
2023/10/27 02:04:42;;;;;;;16.60;11.57;;;;;;;8.71;100.00;97495.97;5035018;28;20026;-84
2023/10/27 02:07:07;;;;;;;18.80;12.45;;;;;;;8.57;100.00;97474.59;5033398;28;20384;-85
2023/10/27 02:09:33;;;;;;;18.17;13.45;;;;;;;8.49;100.00;97465.59;5033552;28;20026;-84
2023/10/27 02:11:58;;;;;;;20.60;13.18;;;;;;;8.34;100.00;97443.31;5033282;28;20030;-84
2023/10/27 02:14:25;;;;;;;15.10;10.82;;;;;;;8.63;100.00;97495.72;5034541;28;20484;-85
2023/10/27 02:16:51;;;;;;;17.83;11.27;;;;;;;8.37;100.00;97456.09;5035260;28;20036;-84
2023/10/27 02:19:16;;;;;;;19.13;11.48;;;;;;;8.24;100.00;97448.34;5034690;28;20022;-85
2023/10/27 02:21:41;;;;;;;17.05;11.10;;;;;;;8.48;100.00;97491.66;5092212;28;20376;-84
2023/10/27 02:24:07;;;;;;;13.38;10.32;;;;;;;8.45;100.00;97487.50;5075087;28;20376;-84
2023/10/27 02:26:32;;;;;;;16.08;9.82;;;;;;;8.39;100.00;97475.00;5092197;28;20044;-84
2023/10/27 02:28:57;;;;;;;11.82;8.68;;;;;;;8.52;100.00;97487.06;5092002;28;20103;-85
2023/10/27 02:31:23;;;;;;;11.18;8.88;;;;;;;8.29;100.00;97447.19;5075074;28;20511;-84
2023/10/27 02:33:49;;;;;;;12.43;8.60;;;;;;;8.22;100.00;97444.22;5092017;28;20052;-84
2023/10/27 02:36:14;;;;;;;10.48;7.93;;;;;;;8.29;100.00;97476.53;5074697;28;20055;-84
2023/10/27 02:38:39;;;;;;;12.70;8.65;;;;;;;8.14;100.00;97454.31;5091894;28;20105;-84
2023/10/27 02:41:11;;;;;;;10.60;7.97;;;;;;;8.02;100.00;97452.59;5074636;28;20040;-84
2023/10/27 02:43:40;;;;;;;10.65;7.53;;;;;;;7.68;100.00;97409.16;5091907;28;20456;-84
2023/10/27 02:46:06;;;;;;;14.07;9.40;;;;;;;7.80;100.00;97450.72;5091594;28;20499;-85
2023/10/27 02:48:31;;;;;;;15.15;9.95;;;;;;;8.07;100.00;97492.00;5091895;28;20039;-84
2023/10/27 02:50:57;;;;;;;13.27;9.32;;;;;;;7.86;100.00;97450.25;5074494;28;20028;-85
2023/10/27 02:53:23;;;;;;;12.70;9.93;;;;;;;7.85;100.00;97454.63;5045213;28;20050;-84
2023/10/27 02:55:50;;;;;;;12.57;8.30;;;;;;;7.97;100.00;97484.88;5065973;28;20025;-85
2023/10/27 02:58:15;;;;;;;11.45;8.85;;;;;;;7.88;100.00;97477.75;5032356;28;20029;-84
2023/10/27 03:00:44;;;;;;;12.02;9.13;;;;;;;7.86;100.00;97482.19;5032584;28;20017;-84
2023/10/27 03:03:09;;;;;;;10.82;7.95;;;;;;;7.51;100.00;97435.44;5032371;28;20326;-84
2023/10/27 03:05:35;;;;;;;11.27;9.60;;;;;;;7.89;100.00;97505.31;5033751;28;20024;-84
2023/10/27 03:08:01;;;;;;;13.00;9.27;;;;;;;7.84;100.00;97507.41;5033671;28;20026;-84
2023/10/27 03:10:26;;;;;;;13.43;9.45;;;;;;;7.61;100.00;97472.72;5033643;28;20113;-84
2023/10/27 03:12:51;;;;;;;9.98;8.50;;;;;;;7.68;100.00;97492.09;5033517;28;20385;-84
2023/10/27 03:15:17;;;;;;;10.73;8.68;;;;;;;7.59;100.00;97484.13;5065569;28;20025;-84
2023/10/27 03:17:42;;;;;;;10.27;8.02;;;;;;;7.42;100.00;97470.56;5032449;28;20048;-84
2023/10/27 03:20:08;;;;;;;10.40;8.70;;;;;;;7.60;100.00;97496.97;5033328;28;20026;-85
2023/10/27 03:22:34;;;;;;;10.43;8.00;;;;;;;7.57;100.00;97494.56;5033544;28;20041;-84
2023/10/27 03:25:00;;;;;;;15.80;8.35;;;;;;;7.76;100.00;97522.66;5033129;28;20041;-84
2023/10/27 03:27:26;;;;;;;12.27;8.23;;;;;;;7.57;100.00;97499.75;5033872;28;20385;-84
2023/10/27 03:29:51;;;;;;;10.18;7.82;;;;;;;7.52;100.00;97490.66;5032364;28;20021;-84
2023/10/27 03:32:17;;;;;;;10.77;8.70;;;;;;;7.75;100.00;97516.66;5031904;28;20084;-84
2023/10/27 03:34:46;;;;;;;9.10;7.07;;;;;;;7.71;100.00;97502.25;5065306;28;20492;-84
2023/10/27 03:37:12;;;;;;;10.50;7.70;;;;;;;7.32;100.00;97453.16;5032880;28;20048;-84
2023/10/27 03:39:38;;;;;;;8.55;7.22;;;;;;;7.54;100.00;97483.59;5033187;28;20036;-84
2023/10/27 03:42:04;;;;;;;9.38;7.60;;;;;;;7.55;100.00;97477.50;5065051;28;20087;-84
2023/10/27 03:44:29;;;;;;;9.18;7.70;;;;;;;7.61;100.00;97495.19;5031904;28;20076;-84
2023/10/27 03:46:54;;;;;;;11.25;8.35;;;;;;;7.64;100.00;97502.75;5033207;28;20057;-84
2023/10/27 03:49:20;;;;;;;10.10;7.57;;;;;;;7.56;100.00;97492.94;5032847;28;20032;-84
2023/10/27 03:51:45;;;;;;;12.85;8.02;;;;;;;7.57;100.00;97497.16;5031682;28;20033;-84
2023/10/27 03:54:10;;;;;;;10.63;7.25;;;;;;;7.43;100.00;97479.16;5032556;28;20025;-84
2023/10/27 03:56:36;;;;;;;9.82;7.15;;;;;;;7.56;100.00;97498.09;5064612;28;20037;-84
2023/10/27 03:59:01;;;;;;;9.18;6.88;;;;;;;7.52;100.00;97490.66;5031328;28;20014;-84
2023/10/27 04:01:27;;;;;;;9.05;6.72;;;;;;;7.42;100.00;97475.75;5032818;28;20029;-84
2023/10/27 04:03:55;;;;;;;8.75;7.72;;;;;;;7.33;100.00;97460.84;5064741;28;20033;-84
2023/10/27 04:06:21;;;;;;;10.40;8.70;;;;;;;7.45;100.00;97472.09;5032178;28;20116;-84
2023/10/27 04:08:47;;;;;;;9.77;8.15;;;;;;;7.61;100.00;97497.78;5031273;28;20112;-85
2023/10/27 04:11:12;;;;;;;17.75;14.20;;;;;;;7.43;100.00;97476.56;5032279;28;20117;-84
2023/10/27 04:13:38;;;;;;;13.50;10.75;;;;;;;7.50;100.00;97485.59;5032585;28;20025;-84
2023/10/27 04:16:04;;;;;;;16.65;12.13;;;;;;;7.42;100.00;97488.69;5032367;28;20041;-84
2023/10/27 04:18:29;;;;;;;11.82;9.23;;;;;;;7.33;100.00;97475.53;5031191;28;20025;-84
2023/10/27 04:20:55;;;;;;;11.13;9.35;;;;;;;7.16;100.00;97440.44;5032356;28;20037;-84
2023/10/27 04:23:20;;;;;;;10.85;8.75;;;;;;;7.23;100.00;97450.25;5032133;28;20065;-84
2023/10/27 04:25:47;;;;;;;8.80;7.82;;;;;;;7.11;100.00;97427.81;5032513;28;20464;-84
2023/10/27 04:28:13;;;;;;;11.45;8.23;;;;;;;7.40;100.00;97469.84;5032385;28;20045;-85
2023/10/27 04:30:38;;;;;;;8.80;7.85;;;;;;;7.40;100.00;97474.19;5032405;28;20435;-84
2023/10/27 04:33:09;;;;;;;9.95;8.68;;;;;;;7.28;100.00;97449.13;5031888;28;20104;-84
2023/10/27 04:35:36;;;;;;;16.48;10.00;;;;;;;7.49;100.00;97482.16;5030964;28;20053;-84
2023/10/27 04:38:01;;;;;;;10.43;9.32;;;;;;;7.29;100.00;97451.63;5030666;28;20111;-84
2023/10/27 04:40:31;;;;;;;11.10;8.57;;;;;;;6.97;100.00;97412.38;5032527;28;20112;-84
2023/10/27 04:42:58;;;;;;;9.85;7.72;;;;;;;7.36;100.00;97464.97;5064196;28;20037;-84
2023/10/27 04:45:24;;;;;;;10.25;8.85;;;;;;;7.22;100.00;97446.03;5031857;28;20026;-84
2023/10/27 04:47:50;;;;;;;12.27;8.93;;;;;;;7.36;100.00;97477.91;5064165;28;20029;-84
2023/10/27 04:50:15;;;;;;;13.73;9.23;;;;;;;7.24;100.00;97464.03;5031856;28;20032;-84
2023/10/27 04:52:41;;;;;;;10.23;8.07;;;;;;;7.23;100.00;97462.38;5064123;28;20029;-84
2023/10/27 04:55:07;;;;;;;8.82;7.93;;;;;;;7.30;100.00;97468.00;5063962;28;20084;-84
2023/10/27 04:57:33;;;;;;;10.85;8.18;;;;;;;7.29;100.00;97474.94;5031958;28;20025;-84
2023/10/27 04:59:58;;;;;;;10.85;8.30;;;;;;;7.11;100.00;97458.88;5031989;28;20025;-85
2023/10/27 05:02:24;;;;;;;11.23;9.88;;;;;;;7.34;100.00;97500.50;5031680;28;20029;-85
2023/10/27 05:04:49;;;;;;;12.48;9.82;;;;;;;7.24;100.00;97487.34;5063789;28;20109;-85
2023/10/27 05:07:15;;;;;;;13.18;9.95;;;;;;;6.99;100.00;97444.16;5030202;28;20491;-85
2023/10/27 05:09:40;;;;;;;12.77;10.80;;;;;;;7.28;100.00;97472.44;5032035;28;20056;-85
2023/10/27 05:12:05;;;;;;;11.77;10.05;;;;;;;7.33;100.00;97466.03;5031635;28;20132;-85
2023/10/27 05:14:32;;;;;;;14.18;9.73;;;;;;;7.35;100.00;97461.56;5031738;28;20037;-85
2023/10/27 05:16:58;;;;;;;18.83;11.35;;;;;;;7.20;100.00;97436.69;5031621;28;20034;-85
2023/10/27 05:19:24;;;;;;;20.95;10.60;;;;;;;7.36;100.00;97455.44;5034247;28;20044;-85
2023/10/27 05:21:49;;;;;;;23.75;10.60;;;;;;;7.33;100.00;97453.09;5034277;28;20076;-85
2023/10/27 05:24:15;;;;;;;23.60;11.05;;;;;;;7.39;100.00;97459.59;5034268;28;20033;-85
2023/10/27 05:26:40;;;;;;;27.90;12.32;;;;;;;7.17;100.00;97416.22;5034486;28;20033;-85
2023/10/27 05:29:05;;;;;;;24.20;11.90;;;;;;;7.23;100.00;97431.31;5035592;28;20025;-85
2023/10/27 05:31:31;;;;;;;21.30;10.77;;;;;;;7.11;100.00;97406.28;5035520;28;20484;-85
2023/10/27 05:33:56;;;;;;;17.58;10.07;;;;;;;7.36;100.00;97434.72;5035898;28;20032;-85
2023/10/27 05:36:21;;;;;;;16.25;10.63;;;;;;;7.53;100.00;97462.03;5033836;28;20033;-85
2023/10/27 05:38:47;;;;;;;20.38;11.15;;;;;;;7.56;100.00;97461.03;5035254;28;20373;-85
2023/10/27 05:41:14;;;;;;;16.90;11.68;;;;;;;7.44;100.00;97439.38;5033957;28;20026;-85
2023/10/27 05:43:40;;;;;;;19.65;10.90;;;;;;;7.55;100.00;97459.38;5035418;28;20036;-85
2023/10/27 05:46:05;;;;;;;15.23;10.70;;;;;;;7.46;100.00;97458.25;5035338;28;20104;-85
2023/10/27 05:48:30;;;;;;;13.00;9.70;;;;;;;7.53;100.00;97461.22;5035075;28;20029;-85
2023/10/27 05:50:56;;;;;;;14.07;9.93;;;;;;;7.53;100.00;97464.63;5035198;28;20516;-85
2023/10/27 05:53:21;;;;;;;17.15;10.07;;;;;;;7.46;100.00;97456.47;5033741;28;20059;-85
2023/10/27 05:55:46;;;;;;;13.88;9.55;;;;;;;7.64;100.00;97476.84;5035248;28;20021;-85
2023/10/27 05:58:12;;;;;;;12.93;10.00;;;;;;;7.64;100.00;97479.44;5035023;28;20112;-85
2023/10/27 06:00:37;;;;;;;12.88;9.60;;;;;;;7.64;100.00;97463.91;5033863;28;20066;-85
2023/10/27 06:03:03;;;;;;;13.63;11.60;;;;;;;7.77;100.00;97474.25;5035091;28;20029;-85
2023/10/27 06:05:29;;;;;;;13.05;10.65;;;;;;;7.85;100.00;97482.31;5034634;28;20376;-85
2023/10/27 06:07:54;;;;;;;14.10;10.70;;;;;;;7.64;100.00;97459.53;5035073;28;20056;-85
2023/10/27 06:10:19;;;;;;;18.55;11.38;;;;;;;7.68;100.00;97465.34;5034627;28;20025;-85
2023/10/27 06:12:45;;;;;;;19.90;12.93;;;;;;;7.63;100.00;97465.66;5034786;28;20108;-85
2023/10/27 06:15:10;;;;;;;56.85;25.40;;;;;;;7.59;100.00;97466.81;5033266;28;20032;-85
2023/10/27 06:17:36;;;;;;;36.72;20.25;;;;;;;7.47;100.00;97452.94;5034994;28;20047;-85
2023/10/27 06:20:02;;;;;;;33.05;24.17;;;;;;;7.33;100.00;97426.34;5033826;28;20021;-85
2023/10/27 06:22:28;;;;;;;29.88;20.25;;;;;;;7.48;100.00;97457.19;5034175;28;20099;-84
2023/10/27 06:24:54;;;;;;;25.10;19.83;;;;;;;7.19;100.00;97417.75;5032583;28;20036;-85
2023/10/27 06:27:19;;;;;;;24.05;18.48;;;;;;;7.21;100.00;97413.31;5033119;28;20026;-84
2023/10/27 06:29:44;;;;;;;23.70;18.00;;;;;;;7.43;100.00;97455.84;5032539;28;20083;-85
2023/10/27 06:32:10;;;;;;;24.13;16.80;;;;;;;7.34;100.00;97438.38;5033012;28;20033;-85
2023/10/27 06:34:35;;;;;;;25.85;18.85;;;;;;;7.42;100.00;97446.44;5032987;28;20029;-85
2023/10/27 06:37:01;;;;;;;28.48;19.88;;;;;;;7.48;100.00;97456.38;5032630;28;20083;-85
2023/10/27 06:39:26;;;;;;;32.88;22.23;;;;;;;7.54;100.00;97449.91;5033061;28;20029;-85
2023/10/27 06:41:52;;;;;;;48.83;31.48;;;;;;;7.68;100.00;97465.34;5033028;28;20120;-85
2023/10/27 06:44:17;;;;;;;36.60;24.00;;;;;;;7.65;100.00;97447.41;5032734;28;20029;-85
2023/10/27 06:46:44;;;;;;;32.38;23.60;;;;;;;7.52;100.00;97423.31;5034190;28;20060;-85
2023/10/27 06:49:10;;;;;;;36.50;24.40;;;;;;;7.66;100.00;97425.75;5032876;28;20021;-85
2023/10/27 06:51:35;;;;;;;43.08;29.95;;;;;;;7.58;100.00;97405.56;5032703;28;20037;-85
2023/10/27 06:54:00;;;;;;;35.58;25.48;;;;;;;7.87;100.00;97450.16;5032840;28;20018;-85
2023/10/27 06:56:26;;;;;;;34.42;24.55;;;;;;;7.63;100.00;97403.50;5033870;28;20109;-85
2023/10/27 06:58:51;;;;;;;36.33;23.67;;;;;;;7.95;100.00;97447.84;5034084;28;20473;-85
2023/10/27 07:01:16;;;;;;;29.17;20.63;;;;;;;7.94;100.00;97451.38;5034013;28;20511;-85
2023/10/27 07:03:42;;;;;;;22.88;17.15;;;;;;;7.99;100.00;97445.88;5033789;28;20025;-85
2023/10/27 07:06:07;;;;;;;22.10;16.80;;;;;;;8.13;100.00;97455.25;5032601;28;20120;-85
2023/10/27 07:08:33;;;;;;;18.60;13.32;;;;;;;8.22;100.00;97452.84;5033745;28;20397;-85
2023/10/27 07:10:59;;;;;;;20.77;13.88;;;;;;;8.04;100.00;97404.06;5033852;28;20075;-85
2023/10/27 07:13:28;;;;;;;15.63;11.80;;;;;;;8.22;100.00;97418.31;5033318;28;20029;-85
2023/10/27 07:15:53;;;;;;;15.52;12.23;;;;;;;8.45;100.00;97445.19;5033682;28;20088;-85
2023/10/27 07:18:19;;;;;;;16.25;11.65;;;;;;;8.55;100.00;97448.72;5032110;28;20048;-85
2023/10/27 07:20:45;;;;;;;15.13;11.60;;;;;;;8.56;100.00;97437.44;5032227;28;20040;-85
2023/10/27 07:23:10;;;;;;;19.30;12.50;;;;;;;8.46;100.00;97410.50;5033852;28;20022;-85
2023/10/27 07:25:36;;;;;;;16.02;12.02;;;;;;;8.55;100.00;97420.19;5032028;28;20502;-85
2023/10/27 07:28:01;;;;;;;15.88;11.77;;;;;;;8.77;100.00;97455.78;5033524;28;20037;-85
2023/10/27 07:30:26;;;;;;;13.70;11.00;;;;;;;8.90;100.00;97450.50;5033195;28;20030;-85
2023/10/27 07:32:52;;;;;;;17.17;11.75;;;;;;;8.91;100.00;97445.19;5031864;28;20030;-85
2023/10/27 07:35:17;;;;;;;15.48;11.02;;;;;;;8.86;100.00;97431.75;5031916;28;20102;-85
2023/10/27 07:37:42;;;;;;;18.92;14.43;;;;;;;9.02;100.00;97441.81;5033165;28;20057;-85
2023/10/27 07:40:08;;;;;;;22.58;14.23;;;;;;;8.95;100.00;97435.41;5033030;28;20036;-85
2023/10/27 07:42:33;;;;;;;17.58;12.65;;;;;;;9.08;100.00;97451.72;5031655;28;20123;-85
2023/10/27 07:44:59;;;;;;;18.35;14.45;;;;;;;8.98;100.00;97406.63;5031773;28;20021;-85
2023/10/27 07:47:25;;;;;;;15.30;12.93;;;;;;;9.10;100.00;97404.84;5033117;28;20393;-85
2023/10/27 07:49:52;;;;;;;15.07;10.95;;;;;;;9.19;100.00;97428.38;5033010;28;20040;-85
2023/10/27 07:52:17;;;;;;;11.35;9.57;;;;;;;9.10;100.00;97403.09;5032805;28;20049;-84
2023/10/27 07:54:43;;;;;;;13.80;12.00;;;;;;;9.29;100.00;97401.69;5032929;28;20064;-85
2023/10/27 07:57:08;;;;;;;13.30;11.25;;;;;;;9.38;100.00;97416.53;5031590;28;20400;-85
2023/10/27 07:59:34;;;;;;;16.77;10.80;;;;;;;9.45;100.00;97418.56;5031328;28;20029;-85
2023/10/27 08:01:59;;;;;;;16.65;11.55;;;;;;;9.53;100.00;97409.34;5032801;28;20029;-85
2023/10/27 08:04:25;;;;;;;14.32;11.77;;;;;;;9.58;100.00;97428.81;5032346;28;20073;-85
2023/10/27 08:06:52;;;;;;;14.05;10.43;;;;;;;9.38;100.00;97388.78;5032879;28;20064;-85
2023/10/27 08:09:19;;;;;;;15.25;11.55;;;;;;;9.59;100.00;97419.25;5032565;28;20033;-85
2023/10/27 08:11:47;;;;;;;15.05;11.57;;;;;;;9.56;100.00;97391.72;5031233;28;20052;-85
2023/10/27 08:14:13;;;;;;;13.50;11.43;;;;;;;9.53;100.00;97378.16;5031157;28;20036;-85
2023/10/27 08:16:38;;;;;;;13.57;11.35;;;;;;;9.72;100.00;97409.53;5030825;28;20393;-85
2023/10/27 08:19:03;;;;;;;15.27;10.48;;;;;;;9.77;100.00;97397.00;5031357;28;20075;-85
2023/10/27 08:21:29;;;;;;;13.75;10.07;;;;;;;9.79;100.00;97394.28;5032354;28;20543;-86
2023/10/27 08:23:54;;;;;;;12.02;10.15;;;;;;;9.82;100.00;97400.09;5031143;28;20087;-86
2023/10/27 08:26:19;;;;;;;12.75;10.15;;;;;;;9.97;100.00;97405.81;5032186;28;20030;-85
2023/10/27 08:28:45;;;;;;;16.40;11.40;;;;;;;10.03;100.00;97407.94;5032432;28;20022;-85
2023/10/27 08:31:10;;;;;;;14.70;11.68;;;;;;;9.97;100.00;97406.66;5032615;28;20278;-85
2023/10/27 08:33:35;;;;;;;15.93;11.13;;;;;;;10.00;100.00;97406.41;5030604;28;20029;-85
2023/10/27 08:36:04;;;;;;;13.82;10.20;;;;;;;10.13;100.00;97418.44;5029659;28;20059;-85
2023/10/27 08:38:32;;;;;;;14.68;10.55;;;;;;;9.82;100.00;97378.44;5012730;28;20513;-85
2023/10/27 08:40:58;;;;;;;12.23;10.45;;;;;;;10.22;100.00;97433.28;5029698;28;20030;-85
2023/10/27 08:43:23;;;;;;;12.35;10.23;;;;;;;10.03;100.00;97388.91;5029184;28;20052;-85
2023/10/27 08:45:49;;;;;;;11.80;10.15;;;;;;;10.20;100.00;97417.00;5012971;28;20069;-86
2023/10/27 08:48:15;;;;;;;12.40;10.02;;;;;;;10.30;100.00;97428.34;5029740;28;20452;-86
2023/10/27 08:50:40;;;;;;;14.43;11.48;;;;;;;10.43;100.00;97436.78;5012682;28;20040;-85
2023/10/27 08:53:09;;;;;;;15.68;10.57;;;;;;;10.47;100.00;97437.38;5012319;28;20033;-85
2023/10/27 08:55:35;;;;;;;12.13;10.20;;;;;;;10.52;100.00;97439.59;5012605;28;20087;-85
2023/10/27 08:58:00;;;;;;;13.93;11.82;;;;;;;10.53;100.00;97428.22;5028942;28;20470;-85
2023/10/27 09:00:26;;;;;;;13.38;10.35;;;;;;;10.49;100.00;97420.69;5028489;28;20156;-85
2023/10/27 09:02:52;;;;;;;13.65;10.57;;;;;;;10.46;100.00;97425.31;5028687;28;20492;-86
2023/10/27 09:05:17;;;;;;;13.20;10.25;;;;;;;10.52;100.00;97437.81;5012050;28;20047;-86
2023/10/27 09:07:43;;;;;;;13.48;10.60;;;;;;;10.29;100.00;97379.03;5025463;28;20164;-85
2023/10/27 09:10:09;;;;;;;11.88;10.65;;;;;;;10.52;100.00;97422.19;5031313;28;20017;-85
2023/10/27 09:12:38;;;;;;;11.60;9.85;;;;;;;10.57;100.00;97424.41;5030903;28;20113;-86
2023/10/27 09:15:05;;;;;;;30.08;21.10;;;;;;;10.47;100.00;97406.97;5029807;28;20041;-85
2023/10/27 09:17:49;;;;;;;18.98;14.98;;;;;;;10.39;100.00;97388.56;5029800;28;20384;-86
2023/10/27 09:20:14;;;;;;;16.63;11.88;;;;;;;10.60;100.00;97424.19;5031300;28;20030;-86
2023/10/27 09:22:54;;;;;;;13.85;11.25;;;;;;;10.60;100.00;97427.59;5030960;28;20037;-85
2023/10/27 09:25:20;;;;;;;14.60;11.80;;;;;;;10.49;100.00;97405.06;5031053;28;20052;-86
2023/10/27 09:27:46;;;;;;;14.70;10.73;;;;;;;10.44;100.00;97403.78;5030973;28;20468;-86
2023/10/27 09:30:38;;;;;;;15.13;11.63;;;;;;;10.68;100.00;97442.59;5030046;28;20025;-85
2023/10/27 09:33:23;;;;;;;13.85;11.00;;;;;;;10.47;100.00;97412.16;4988955;28;20050;-86
2023/10/27 09:35:50;;;;;;;16.30;11.18;;;;;;;10.49;100.00;97412.88;4989245;28;20041;-85
2023/10/27 09:38:17;;;;;;;18.27;13.88;;;;;;;10.74;100.00;97444.69;4988836;28;20510;-86
2023/10/27 09:40:45;;;;;;;21.27;16.38;;;;;;;10.45;100.00;97393.25;4989048;28;20031;-86
2023/10/27 09:43:21;;;;;;;19.60;16.27;;;;;;;10.63;100.00;97432.56;4989112;28;20758;-86
2023/10/27 09:45:54;;;;;;;21.75;16.83;;;;;;;10.47;100.00;97386.16;4989207;28;20030;-85
2023/10/27 09:48:25;;;;;;;23.23;18.70;;;;;;;10.60;100.00;97398.16;4972875;28;20030;-86
2023/10/27 09:51:04;;;;;;;20.98;16.13;;;;;;;10.75;100.00;97417.72;4989259;28;20034;-86
2023/10/27 09:53:30;;;;;;;18.88;15.15;;;;;;;10.54;100.00;97383.88;4988912;28;20037;-86
2023/10/27 09:55:59;;;;;;;21.13;17.23;;;;;;;10.70;100.00;97406.84;4989014;28;20564;-86
2023/10/27 09:58:27;;;;;;;20.05;16.60;;;;;;;10.49;100.00;97379.06;4972485;28;20506;-85
2023/10/27 10:00:54;;;;;;;21.95;17.38;;;;;;;10.71;100.00;97414.53;4988954;28;20498;-85
2023/10/27 10:03:23;;;;;;;23.60;17.60;;;;;;;10.77;100.00;97413.19;4990551;28;20050;-86
2023/10/27 10:06:20;;;;;;;22.35;16.98;;;;;;;10.73;100.00;97404.81;4993488;28;20027;-86
2023/10/27 10:09:10;;;;;;;23.35;17.27;;;;;;;10.50;100.00;97374.66;4977970;28;20026;-85
2023/10/27 10:11:56;;;;;;;26.55;18.90;;;;;;;10.50;100.00;97377.28;5033978;28;20025;-86
2023/10/27 10:14:36;;;;;;;24.60;19.25;;;;;;;10.74;100.00;97403.88;5033188;28;20053;-86
2023/10/27 10:17:02;;;;;;;25.08;19.73;;;;;;;10.66;100.00;97388.06;5032941;28;20439;-85
2023/10/27 10:19:47;;;;;;;25.83;20.00;;;;;;;10.74;100.00;97409.09;5032712;28;20026;-85
2023/10/27 10:22:40;;;;;;;24.88;19.95;;;;;;;10.77;100.00;97402.78;5032917;28;20120;-85
2023/10/27 10:25:18;;;;;;;23.88;19.45;;;;;;;10.83;100.00;97404.91;5034163;28;20057;-85
2023/10/27 10:28:25;;;;;;;27.95;20.45;;;;;;;10.92;100.00;97398.09;5034119;28;20159;-86
2023/10/27 10:31:16;;;;;;;22.83;19.63;;;;;;;10.91;100.00;97392.06;4992153;28;20034;-86
2023/10/27 10:33:45;;;;;;;23.25;20.10;;;;;;;10.84;100.00;97383.09;4975372;28;20038;-86
2023/10/27 10:36:22;;;;;;;29.92;21.00;;;;;;;10.88;100.00;97384.50;4975660;28;20520;-86
2023/10/27 10:38:51;;;;;;;27.67;21.67;;;;;;;10.90;100.00;97379.97;4975135;28;20046;-85
2023/10/27 10:41:18;;;;;;;28.92;21.00;;;;;;;10.79;100.00;97366.19;4991845;28;20069;-85
2023/10/27 10:43:44;;;;;;;26.65;21.10;;;;;;;10.81;100.00;97374.72;4991651;28;20390;-86
2023/10/27 10:46:10;;;;;;;27.58;23.02;;;;;;;10.69;100.00;97346.13;4975522;28;20177;-85
2023/10/27 10:48:41;;;;;;;31.67;23.73;;;;;;;10.89;100.00;97373.13;4991652;28;20516;-86
2023/10/27 10:51:13;;;;;;;29.77;23.97;;;;;;;10.87;100.00;97363.78;4975468;28;20038;-86
2023/10/27 10:53:39;;;;;;;31.02;23.65;;;;;;;10.89;100.00;97361.88;4975087;28;20038;-86
2023/10/27 10:56:04;;;;;;;24.85;20.15;;;;;;;10.80;100.00;97349.63;4975311;28;20097;-86
2023/10/27 10:58:34;;;;;;;28.17;21.40;;;;;;;10.87;100.00;97362.03;4975116;28;20027;-86
2023/10/27 11:01:00;;;;;;;24.48;20.08;;;;;;;10.59;100.00;97323.63;4991622;28;20046;-86
2023/10/27 11:03:28;;;;;;;28.77;21.20;;;;;;;10.71;100.00;97336.44;4975167;28;20030;-86
2023/10/27 11:05:58;;;;;;;27.05;21.52;;;;;;;10.86;100.00;97357.75;4991504;28;20031;-85
2023/10/27 11:08:25;;;;;;;27.55;21.15;;;;;;;10.50;100.00;97301.78;5022104;28;20069;-86
2023/10/27 11:11:08;;;;;;;29.33;24.90;;;;;;;10.81;100.00;97351.28;5031839;28;20025;-85
2023/10/27 11:13:49;;;;;;;26.60;21.67;;;;;;;10.70;100.00;97334.78;5032906;28;20385;-86
2023/10/27 11:16:24;;;;;;;;;;;;;;;10.98;100.00;97361.09;5031960;28;20021;-86
2023/10/27 11:18:53;;;;;;;28.13;23.08;;;;;;;10.95;100.00;97348.31;5033028;28;19959;-86